Time;durP1;ratioP1;P1;durP2;ratioP2;P2;SDS_P1;SDS_P2;PMS_P1;PMS_P2;Temp;Humidity;BMP_temperature;BMP_pressure;BME280_temperature;BME280_humidity;BME280_pressure;Samples;Min_cycle;Max_cycle;Signal;HPM_P1;HPM_P2
2023/02/19 00:01:10;;;;;;;;;;;;;;;7.75;43.51;93127.09;2054802;69;20426;-76
2023/02/19 00:03:36;;;;;;;;;;;;;;;7.52;44.29;93125.38;2054856;69;20058;-74
2023/02/19 00:06:02;;;;;;;;;;;;;;;7.39;44.31;93122.94;2055059;69;20090;-76
2023/02/19 00:08:28;;;;;;;;;;;;;;;7.41;44.03;93127.94;2054796;69;20089;-76
2023/02/19 00:10:54;;;;;;;;;;;;;;;7.37;44.55;93140.28;2055050;69;20046;-75
2023/02/19 00:13:19;;;;;;;;;;;;;;;7.58;43.79;93133.50;2055015;69;20113;-76
2023/02/19 00:15:45;;;;;;;;;;;;;;;7.49;44.83;93126.50;2055096;69;20487;-75
2023/02/19 00:18:10;;;;;;;;;;;;;;;7.60;43.85;93125.97;2054953;69;20053;-76
2023/02/19 00:20:35;;;;;;;;;;;;;;;7.06;44.98;93130.81;2054978;69;20049;-75
2023/02/19 00:23:01;;;;;;;;;;;;;;;7.25;44.79;93136.53;2054827;69;20074;-76
2023/02/19 00:25:26;;;;;;;;;;;;;;;7.41;43.83;93133.53;2054982;70;20066;-77
2023/02/19 00:27:52;;;;;;;;;;;;;;;7.44;44.71;93135.94;2055039;69;20063;-77
2023/02/19 00:30:17;;;;;;;;;;;;;;;7.53;44.69;93124.03;2054834;70;20120;-76
2023/02/19 00:32:43;;;;;;;;;;;;;;;7.43;43.83;93122.50;2054893;69;20046;-77
2023/02/19 00:35:10;;;;;;;;;;;;;;;7.28;44.43;93129.03;2054819;69;20062;-77
2023/02/19 00:37:35;;;;;;;;;;;;;;;7.03;45.44;93132.69;2054310;69;20427;-76
2023/02/19 00:40:00;;;;;;;;;;;;;;;6.95;46.00;93120.84;2054535;70;20073;-76
2023/02/19 00:42:26;;;;;;;;;;;;;;;7.06;46.03;93128.75;2056989;69;20375;-77
2023/02/19 00:44:51;;;;;;;;;;;;;;;7.13;45.11;93127.91;2054872;69;20062;-77
2023/02/19 00:47:19;;;;;;;;;;;;;;;7.05;45.92;93137.69;2053804;70;20061;-77
2023/02/19 00:49:44;;;;;;;;;;;;;;;7.07;45.12;93129.47;2057097;69;20050;-77
2023/02/19 00:52:09;;;;;;;;;;;;;;;7.02;45.44;93114.41;2056945;69;20470;-77
2023/02/19 00:54:36;;;;;;;;;;;;;;;6.80;45.61;93115.41;2055082;69;20490;-75
2023/02/19 00:57:02;;;;;;;;;;;;;;;6.77;46.48;93122.91;2054916;69;20506;-77
2023/02/19 00:59:27;;;;;;;;;;;;;;;6.98;45.82;93127.34;2055271;69;20042;-76
2023/02/19 01:01:53;;;;;;;;;;;;;;;7.01;45.51;93131.78;2054678;70;20147;-77
2023/02/19 01:04:18;;;;;;;;;;;;;;;7.11;44.47;93115.81;2054766;70;20086;-77
2023/02/19 01:06:44;;;;;;;;;;;;;;;7.26;44.83;93120.47;2057344;69;20086;-77
2023/02/19 01:09:09;;;;;;;;;;;;;;;6.91;45.31;93116.97;2055289;69;20089;-77
2023/02/19 01:11:35;;;;;;;;;;;;;;;6.76;45.55;93120.69;2055355;69;20141;-77
2023/02/19 01:14:00;;;;;;;;;;;;;;;6.87;45.52;93118.16;2054720;70;20054;-77
2023/02/19 01:16:26;;;;;;;;;;;;;;;6.83;45.55;93106.63;2054775;70;20486;-77
2023/02/19 01:18:52;;;;;;;;;;;;;;;7.18;44.50;93112.16;2055150;69;20147;-77
2023/02/19 01:21:19;;;;;;;;;;;;;;;7.10;45.23;93097.50;2055291;69;20046;-76
2023/02/19 01:23:45;;;;;;;;;;;;;;;7.34;43.97;93095.91;2055107;69;20052;-75
2023/02/19 01:26:12;;;;;;;;;;;;;;;7.51;43.61;93114.72;2057340;69;20623;-76
2023/02/19 01:28:38;;;;;;;;;;;;;;;7.42;43.67;93113.34;2054939;69;20050;-74
2023/02/19 01:31:04;;;;;;;;;;;;;;;7.43;43.34;93109.25;2055335;69;20499;-76
2023/02/19 01:33:30;;;;;;;;;;;;;;;7.39;42.96;93101.25;2054993;69;20529;-75
2023/02/19 01:35:56;;;;;;;;;;;;;;;7.36;43.23;93113.59;2055188;69;20051;-75
2023/02/19 01:38:22;;;;;;;;;;;;;;;7.33;44.10;93102.81;2055080;69;20066;-74
2023/02/19 01:40:55;;;;;;;;;;;;;;;7.29;43.20;93097.66;2054723;69;20042;-73
2023/02/19 01:43:21;;;;;;;;;;;;;;;7.31;43.07;93095.00;2055225;69;20637;-74
2023/02/19 01:45:46;;;;;;;;;;;;;;;7.28;44.37;93095.41;2055410;69;20178;-74
2023/02/19 01:48:18;;;;;;;;;;;;;;;7.18;44.86;93094.63;2055295;69;20077;-74
2023/02/19 01:50:46;;;;;;;;;;;;;;;7.32;43.60;93092.94;2054606;70;20054;-74
2023/02/19 01:53:13;;;;;;;;;;;;;;;7.36;42.68;93098.88;2055046;69;20521;-76
2023/02/19 01:55:39;;;;;;;;;;;;;;;7.52;42.37;93102.22;2054334;69;20042;-77
2023/02/19 01:58:05;;;;;;;;;;;;;;;7.58;41.45;93088.66;2057423;69;20157;-76
2023/02/19 02:00:31;;;;;;;;;;;;;;;7.31;42.72;93091.47;2055156;69;20129;-76
2023/02/19 02:02:57;;;;;;;;;;;;;;;7.37;43.06;93098.28;2054943;69;20584;-76
2023/02/19 02:05:33;;;;;;;;;;;;;;;7.47;42.81;93084.34;2055206;69;20050;-75
2023/02/19 02:10:45;;;;;;;;;;;;;;;7.51;43.06;93075.50;2055217;69;20142;-75
2023/02/19 02:13:11;;;;;;;;;;;;;;;7.14;43.29;93090.19;2054569;70;20149;-76
2023/02/19 02:15:49;;;;;;;;;;;;;;;7.09;43.94;93065.25;2055237;69;20489;-76
2023/02/19 02:18:39;;;;;;;;;;;;;;;7.18;43.07;93050.56;2055044;69;20053;-77
2023/02/19 02:21:16;;;;;;;;;;;;;;;7.30;43.13;93070.38;2055357;69;20142;-76
2023/02/19 02:24:11;;;;;;;;;;;;;;;7.13;43.44;93063.50;2057495;69;20054;-75
2023/02/19 02:26:48;;;;;;;;;;;;;;;7.01;43.70;93051.34;2048616;70;20051;-76
2023/02/19 02:29:38;;;;;;;;;;;;;;;7.39;42.63;93055.69;2057521;69;20149;-75
2023/02/19 02:32:16;;;;;;;;;;;;;;;6.84;44.49;93065.38;2053881;69;20108;-76
2023/02/19 02:34:47;;;;;;;;;;;;;;;6.96;44.36;93051.59;2055054;69;20434;-75
2023/02/19 02:37:14;;;;;;;;;;;;;;;7.27;42.20;93052.69;2057361;69;20398;-76
2023/02/19 02:39:40;;;;;;;;;;;;;;;7.70;40.77;93053.19;2054485;69;20089;-75
2023/02/19 02:45:34;;;;;;;;;;;;;;;7.54;41.46;93046.31;2054486;70;20588;-75
2023/02/19 02:48:10;;;;;;;;;;;;;;;7.98;39.49;93053.88;2054465;70;20058;-75
2023/02/19 02:50:39;;;;;;;;;;;;;;;6.90;43.97;93057.47;2057359;69;20133;-75
2023/02/19 02:55:53;;;;;;;;;;;;;;;7.37;42.85;93017.06;2052139;70;20069;-74
2023/02/19 02:58:20;;;;;;;;;;;;;;;7.53;42.44;93011.97;2055038;69;20163;-75
2023/02/19 03:03:35;;;;;;;;;;;;;;;7.27;43.11;93023.94;2054575;69;20121;-76
2023/02/19 03:06:03;;;;;;;;;;;;;;;7.26;43.00;93000.06;2054322;70;20169;-77
2023/02/19 03:08:41;;;;;;;;;;;;;;;7.49;42.75;93005.31;2054406;70;20102;-75
2023/02/19 03:19:34;;;;;;;;;;;;;;;7.46;42.24;93024.03;2054477;69;20050;-76
2023/02/19 03:21:59;;;;;;;;;;;;;;;7.36;42.89;93032.38;2054955;69;20066;-77
2023/02/19 03:27:14;;;;;;;;;;;;;;;7.30;42.24;93025.59;2054534;69;20116;-75
2023/02/19 03:29:45;;;;;;;;;;;;;;;7.31;42.28;93027.06;2054553;70;20130;-73
2023/02/19 03:32:13;;;;;;;;;;;;;;;7.49;41.35;93011.66;2057133;69;20168;-74
2023/02/19 03:34:46;;;;;;;;;;;;;;;7.38;41.96;93012.22;2055011;69;20093;-75
2023/02/19 03:37:17;;;;;;;;;;;;;;;7.36;41.70;93001.56;2054428;70;20057;-74
2023/02/19 03:39:44;;;;;;;;;;;;;;;7.32;41.65;92975.31;2054755;69;20489;-74
2023/02/19 03:42:21;;;;;;;;;;;;;;;7.29;41.58;92996.09;2055112;69;20533;-74
2023/02/19 03:44:54;;;;;;;;;;;;;;;7.58;41.24;92982.94;2054427;70;20124;-73
2023/02/19 03:47:26;;;;;;;;;;;;;;;7.71;40.25;92981.06;2057270;69;20054;-75
2023/02/19 03:50:05;;;;;;;;;;;;;;;7.72;41.04;92971.31;2055106;69;20082;-74
2023/02/19 03:52:42;;;;;;;;;;;;;;;7.89;39.80;92991.59;2055058;69;20050;-73
2023/02/19 03:55:18;;;;;;;;;;;;;;;7.94;40.54;92983.47;2055154;69;20050;-74
2023/02/19 03:58:13;;;;;;;;;;;;;;;7.88;40.24;92976.09;2057197;69;20174;-74
2023/02/19 04:00:38;;;;;;;;;;;;;;;7.10;42.32;92991.13;2047870;70;20632;-75
2023/02/19 04:03:24;;;;;;;;;;;;;;;7.52;41.78;92987.34;2050449;70;20050;-75
2023/02/19 04:05:52;;;;;;;;;;;;;;;7.56;41.93;92994.00;2047961;70;20148;-76
2023/02/19 04:08:19;;;;;;;;;;;;;;;7.58;42.05;92974.53;2050707;70;20058;-74
2023/02/19 04:10:52;;;;;;;;;;;;;;;7.26;41.76;92958.06;2047669;70;20089;-76
2023/02/19 04:13:26;;;;;;;;;;;;;;;7.78;39.32;92943.75;2047639;70;20496;-76
2023/02/19 04:15:53;;;;;;;;;;;;;;;7.99;39.21;92943.94;2050639;70;20078;-76
2023/02/19 04:18:25;;;;;;;;;;;;;;;7.50;40.85;92959.91;2050446;70;20659;-76
2023/02/19 04:20:51;;;;;;;;;;;;;;;7.67;41.05;92961.13;2050596;70;20522;-77
2023/02/19 04:23:20;;;;;;;;;;;;;;;7.60;41.02;92973.94;2050387;70;20047;-76
2023/02/19 04:25:47;;;;;;;;;;;;;;;7.97;39.25;92949.41;2050644;70;20073;-77
2023/02/19 04:28:13;;;;;;;;;;;;;;;8.01;40.29;92951.75;2050537;70;20188;-77
2023/02/19 04:30:39;;;;;;;;;;;;;;;7.71;39.97;92939.03;2050540;70;20061;-77
2023/02/19 04:33:04;;;;;;;;;;;;;;;7.97;39.17;92937.44;2050575;70;20058;-77
2023/02/19 04:35:30;;;;;;;;;;;;;;;8.06;39.42;92934.66;2050623;70;20124;-78
2023/02/19 04:37:55;;;;;;;;;;;;;;;8.02;39.34;92936.44;2054295;70;20479;-77
2023/02/19 04:40:21;;;;;;;;;;;;;;;7.99;39.48;92918.72;2054366;70;20116;-76
2023/02/19 04:42:46;;;;;;;;;;;;;;;8.33;39.25;92917.66;2054111;70;20058;-76
2023/02/19 04:45:11;;;;;;;;;;;;;;;7.72;41.33;92923.69;2054675;70;20059;-77
2023/02/19 04:47:37;;;;;;;;;;;;;;;8.01;40.53;92920.91;2054448;69;20062;-76
2023/02/19 04:50:02;;;;;;;;;;;;;;;8.05;40.89;92944.38;2054689;69;20053;-77
2023/02/19 04:52:28;;;;;;;;;;;;;;;8.09;41.49;92952.34;2054440;69;20059;-77
2023/02/19 04:54:53;;;;;;;;;;;;;;;7.96;41.92;92927.53;2054341;69;20049;-75
2023/02/19 04:57:19;;;;;;;;;;;;;;;8.17;40.50;92929.78;2054409;69;20450;-75
2023/02/19 04:59:45;;;;;;;;;;;;;;;7.90;39.80;92913.81;2054620;69;20098;-78
2023/02/19 05:02:11;;;;;;;;;;;;;;;7.83;41.08;92911.88;2054681;69;20054;-78
2023/02/19 05:04:36;;;;;;;;;;;;;;;7.71;41.97;92903.34;2054799;69;20059;-77
2023/02/19 05:07:02;;;;;;;;;;;;;;;7.90;41.30;92908.97;2053964;70;20058;-76
2023/02/19 05:09:27;;;;;;;;;;;;;;;7.95;39.90;92907.19;2054721;70;20195;-78
2023/02/19 05:11:52;;;;;;;;;;;;;;;8.08;39.78;92878.72;2054835;69;20054;-76
2023/02/19 05:14:18;;;;;;;;;;;;;;;8.11;41.08;92885.97;2054821;70;20042;-78
2023/02/19 05:16:43;;;;;;;;;;;;;;;7.95;40.80;92895.25;2054435;69;20061;-76
2023/02/19 05:19:12;;;;;;;;;;;;;;;8.08;40.76;92886.38;2053829;70;20570;-76
2023/02/19 05:21:40;;;;;;;;;;;;;;;7.64;41.80;92907.00;2054308;70;20047;-76
2023/02/19 05:24:06;;;;;;;;;;;;;;;7.80;42.25;92893.47;2054468;69;20054;-77
2023/02/19 05:26:32;;;;;;;;;;;;;;;7.94;41.51;92863.66;2054593;69;20116;-77
2023/02/19 05:28:58;;;;;;;;;;;;;;;8.10;40.61;92862.03;2054696;69;20539;-78
2023/02/19 05:31:24;;;;;;;;;;;;;;;8.18;40.57;92897.59;2054082;70;20095;-77
2023/02/19 05:33:52;;;;;;;;;;;;;;;8.26;40.31;92910.16;2053913;70;20101;-77
2023/02/19 05:36:18;;;;;;;;;;;;;;;7.82;40.51;92894.34;2054906;70;20149;-77
2023/02/19 05:38:44;;;;;;;;;;;;;;;7.84;40.93;92939.34;2054747;69;20084;-77
2023/02/19 05:41:11;;;;;;;;;;;;;;;7.99;41.57;92951.63;2054691;70;20410;-76
2023/02/19 05:43:37;;;;;;;;;;;;;;;8.20;40.13;92945.41;2055056;69;20058;-76
2023/02/19 05:46:03;;;;;;;;;;;;;;;8.26;40.47;92957.09;2055430;69;20062;-76
2023/02/19 05:48:28;;;;;;;;;;;;;;;8.44;40.20;92966.13;2056080;69;20050;-76
2023/02/19 05:50:54;;;;;;;;;;;;;;;8.32;40.38;92977.16;2055652;69;20054;-76
2023/02/19 05:53:19;;;;;;;;;;;;;;;8.32;40.55;92963.16;2055893;69;20066;-76
2023/02/19 05:55:44;;;;;;;;;;;;;;;8.44;41.44;92978.09;2055645;69;20164;-77
2023/02/19 05:58:10;;;;;;;;;;;;;;;8.55;41.26;92991.53;2055331;69;20069;-75
2023/02/19 06:00:35;;;;;;;;;;;;;;;8.54;41.61;93012.50;2055358;69;20097;-75
2023/02/19 06:03:01;;;;;;;;;;;;;;;8.62;42.05;92993.44;2056572;69;20117;-76
2023/02/19 06:05:26;;;;;;;;;;;;;;;8.70;39.79;93007.31;2058795;69;20050;-76
2023/02/19 06:07:52;;;;;;;;;;;;;;;8.64;40.26;93013.22;2058728;69;20496;-76
2023/02/19 06:10:17;;;;;;;;;;;;;;;8.62;40.56;93018.69;2058624;69;20046;-76
2023/02/19 06:12:43;;;;;;;;;;;;;;;8.57;41.46;93014.13;2058649;69;20548;-76
2023/02/19 06:15:08;;;;;;;;;;;;;;;8.83;40.66;93006.13;2058705;69;20085;-78
2023/02/19 06:17:34;;;;;;;;;;;;;;;8.80;40.64;92996.84;2058493;69;20141;-78
2023/02/19 06:20:00;;;;;;;;;;;;;;;8.36;41.37;93039.19;2058674;69;20065;-78
2023/02/19 06:22:26;;;;;;;;;;;;;;;8.55;40.98;93042.03;2058635;69;20057;-77
2023/02/19 06:24:51;;;;;;;;;;;;;;;8.68;40.33;93032.44;2058591;69;20498;-76
2023/02/19 06:27:17;;;;;;;;;;;;;;;8.80;40.75;93047.38;2058667;69;20136;-77
2023/02/19 06:29:42;;;;;;;;;;;;;;;8.63;40.47;93069.97;2058734;69;20480;-77
2023/02/19 06:32:07;;;;;;;;;;;;;;;8.80;40.54;93088.75;2058474;69;20046;-78
2023/02/19 06:34:34;;;;;;;;;;;;;;;8.85;41.64;93087.69;2058614;69;20061;-78
2023/02/19 06:37:00;;;;;;;;;;;;;;;8.99;41.14;93074.69;2058528;69;20046;-77
2023/02/19 06:39:26;;;;;;;;;;;;;;;9.35;36.67;93056.91;2058502;69;20149;-76
2023/02/19 06:41:58;;;;;;;;;;;;;;;9.11;37.99;93102.91;2058492;69;20177;-77
2023/02/19 06:44:23;;;;;;;;;;;;;;;9.09;38.54;93078.22;2058496;69;20054;-76
2023/02/19 06:46:49;;;;;;;;;;;;;;;9.27;38.08;93067.56;2057776;69;20049;-77
2023/02/19 06:49:15;;;;;;;;;;;;;;;9.49;37.31;93078.91;2058043;69;20046;-76
2023/02/19 06:51:40;;;;;;;;;;;;;;;9.55;38.79;93087.75;2058493;69;20066;-76
2023/02/19 06:54:06;;;;;;;;;;;;;;;9.36;38.41;93094.16;2061945;69;20129;-77
2023/02/19 06:56:33;;;;;;;;;;;;;;;9.52;38.86;93103.00;2061759;69;20060;-77
2023/02/19 06:58:59;;;;;;;;;;;;;;;9.60;38.52;93112.00;2061791;69;20054;-75
2023/02/19 07:01:25;;;;;;;;;;;;;;;9.45;39.04;93115.91;2061785;69;20116;-78
2023/02/19 07:03:51;;;;;;;;;;;;;;;9.33;39.14;93115.75;2061688;69;20093;-76
2023/02/19 07:06:17;;;;;;;;;;;;;;;8.87;40.26;93116.66;2062003;69;20058;-78
2023/02/19 07:08:42;;;;;;;;;;;;;;;9.31;39.85;93107.19;2061883;69;20143;-78
2023/02/19 07:11:08;;;;;;;;;;;;;;;9.58;39.11;93100.63;2061709;69;20046;-77
2023/02/19 07:13:33;;;;;;;;;;;;;;;9.63;39.76;93093.97;2061589;69;20065;-76
2023/02/19 07:16:00;;;;;;;;;;;;;;;9.14;40.30;93094.03;2061700;69;20414;-76
2023/02/19 07:18:25;;;;;;;;;;;;;;;9.74;39.51;93096.13;2061251;69;20053;-77
2023/02/19 07:20:51;;;;;;;;;;;;;;;9.91;39.85;93110.00;2061902;69;20053;-77
2023/02/19 07:23:16;;;;;;;;;;;;;;;9.98;39.73;93105.53;2062001;69;20072;-77
2023/02/19 07:25:41;;;;;;;;;;;;;;;9.82;39.37;93112.84;2061401;69;20446;-78
2023/02/19 07:28:07;;;;;;;;;;;;;;;9.77;39.75;93108.28;2060927;69;20057;-76
2023/02/19 07:30:33;;;;;;;;;;;;;;;9.97;39.75;93106.13;2061055;69;20057;-77
2023/02/19 07:32:58;;;;;;;;;;;;;;;10.12;39.62;93108.59;2060827;69;20061;-78
2023/02/19 07:35:24;;;;;;;;;;;;;;;10.33;39.63;93107.94;2060329;69;20054;-75
2023/02/19 07:37:49;;;;;;;;;;;;;;;10.33;40.67;93105.13;2060218;69;20262;-76
2023/02/19 07:40:15;;;;;;;;;;;;;;;10.29;39.87;93116.84;2060400;69;20065;-76
2023/02/19 07:42:40;;;;;;;;;;;;;;;10.42;39.63;93138.09;2060650;69;20096;-77
2023/02/19 07:45:06;;;;;;;;;;;;;;;10.38;39.62;93124.50;2060781;69;20107;-77
2023/02/19 07:47:31;;;;;;;;;;;;;;;10.54;39.53;93133.31;2060714;69;20596;-76
2023/02/19 07:49:57;;;;;;;;;;;;;;;10.46;39.83;93132.03;2061303;69;20425;-77
2023/02/19 07:52:22;;;;;;;;;;;;;;;10.21;40.32;93135.19;2061438;69;20045;-77
2023/02/19 07:54:48;;;;;;;;;;;;;;;9.97;40.98;93131.44;2061681;69;20079;-78
2023/02/19 07:57:13;;;;;;;;;;;;;;;10.54;40.25;93146.66;2061488;69;20046;-78
2023/02/19 07:59:39;;;;;;;;;;;;;;;10.52;40.70;93154.94;2061669;69;20058;-77
2023/02/19 08:04:54;;;;;;;;;;;;;;;10.75;40.66;93163.56;2061612;69;20049;-79
2023/02/19 08:07:20;;;;;;;;;;;;;;;10.96;40.31;93168.47;2061436;69;20074;-82
2023/02/19 08:13:17;;;;;;;;;;;;;;;10.99;41.23;93166.53;2061561;69;20052;-81
2023/02/19 08:15:14;;;;;;;;;;;;;;;11.25;40.41;93176.72;2061788;69;20085;-78
2023/02/19 08:17:40;;;;;;;;;;;;;;;11.13;40.55;93175.91;2061560;69;20224;-80
2023/02/19 08:20:06;;;;;;;;;;;;;;;11.22;40.71;93180.75;2061672;69;20053;-78
2023/02/19 08:22:31;;;;;;;;;;;;;;;11.44;40.53;93179.38;2061030;69;20365;-80
2023/02/19 08:24:56;;;;;;;;;;;;;;;11.49;40.67;93176.84;2061761;69;20060;-80
2023/02/19 08:27:22;;;;;;;;;;;;;;;11.53;40.69;93186.28;2061504;69;20172;-79
2023/02/19 08:29:47;;;;;;;;;;;;;;;11.95;39.73;93185.50;2061430;69;20143;-81
2023/02/19 08:32:13;;;;;;;;;;;;;;;12.01;40.04;93190.06;2061494;69;20065;-78
2023/02/19 08:34:38;;;;;;;;;;;;;;;12.13;39.75;93166.16;2060860;69;20057;-79
2023/02/19 08:37:03;;;;;;;;;;;;;;;12.06;40.18;93155.84;2061578;69;20045;-78
2023/02/19 08:39:29;;;;;;;;;;;;;;;12.04;40.31;93157.78;2061441;69;20566;-79
2023/02/19 08:41:54;;;;;;;;;;;;;;;12.58;40.15;93165.34;2061535;69;20045;-82
2023/02/19 08:44:20;;;;;;;;;;;;;;;13.22;40.49;93170.59;2061432;69;20461;-80
2023/02/19 08:46:45;;;;;;;;;;;;;;;13.42;39.89;93171.78;2061468;69;20049;-82
2023/02/19 08:49:11;;;;;;;;;;;;;;;13.60;38.97;93177.00;2061540;69;20052;-81
2023/02/19 08:51:36;;;;;;;;;;;;;;;13.93;38.78;93179.59;2061372;69;20093;-83
2023/02/19 08:54:03;;;;;;;;;;;;;;;14.50;38.24;93162.91;2061395;69;20172;-80
2023/02/19 08:56:28;;;;;;;;;;;;;;;14.71;36.75;93173.94;2061541;69;20435;-78
2023/02/19 08:58:53;;;;;;;;;;;;;;;14.48;37.13;93179.78;2061524;69;20053;-80
2023/02/19 09:01:19;;;;;;;;;;;;;;;14.91;37.16;93159.38;2062748;69;20056;-79
2023/02/19 09:03:44;;;;;;;;;;;;;;;15.10;36.46;93158.94;2062805;69;20057;-80
2023/02/19 09:06:16;;;;;;;;;;;;;;;15.29;36.11;93180.47;2063267;69;20076;-79
2023/02/19 09:08:41;;;;;;;;;;;;;;;15.49;35.06;93192.13;2062352;69;20050;-78
2023/02/19 09:11:07;;;;;;;;;;;;;;;15.73;35.59;93187.69;2063064;69;20057;-80
2023/02/19 09:13:33;;;;;;;;;;;;;;;16.10;34.72;93175.25;2063471;69;20060;-79
2023/02/19 09:15:58;;;;;;;;;;;;;;;15.94;34.99;93178.06;2063265;69;20421;-77
2023/02/19 09:18:24;;;;;;;;;;;;;;;16.11;34.93;93173.16;2059666;69;20196;-79
2023/02/19 09:20:50;;;;;;;;;;;;;;;15.57;34.38;93164.13;2063689;69;20057;-78
2023/02/19 09:23:15;;;;;;;;;;;;;;;15.77;33.82;93170.13;2062975;69;20447;-79
2023/02/19 09:25:41;;;;;;;;;;;;;;;16.02;34.92;93172.75;2062693;69;20385;-78
2023/02/19 09:28:08;;;;;;;;;;;;;;;16.41;34.67;93183.13;2062738;69;20227;-78
2023/02/19 09:30:33;;;;;;;;;;;;;;;16.69;33.41;93171.59;2062057;69;20046;-77
2023/02/19 09:33:00;;;;;;;;;;;;;;;17.89;32.05;93176.84;2061888;69;20153;-77
2023/02/19 09:35:25;;;;;;;;;;;;;;;18.12;30.74;93169.22;2062991;69;20115;-79
2023/02/19 09:37:51;;;;;;;;;;;;;;;18.33;30.24;93165.06;2063382;69;20050;-77
2023/02/19 09:40:20;;;;;;;;;;;;;;;17.89;30.78;93162.59;2062761;69;20042;-77
2023/02/19 09:42:46;;;;;;;;;;;;;;;18.06;31.36;93172.56;2062506;69;20094;-78
2023/02/19 09:45:17;;;;;;;;;;;;;;;18.73;31.05;93172.34;2062787;69;20141;-79
2023/02/19 09:47:43;;;;;;;;;;;;;;;19.43;30.65;93163.47;2062519;69;20053;-78
2023/02/19 09:50:13;;;;;;;;;;;;;;;19.68;29.55;93170.78;2062747;69;20112;-77
2023/02/19 09:52:47;;;;;;;;;;;;;;;20.44;28.83;93159.72;2063066;69;20053;-77
2023/02/19 09:55:36;;;;;;;;;;;;;;;20.63;25.06;93161.75;2062671;69;20054;-78
2023/02/19 09:58:23;;;;;;;;;;;;;;;20.37;25.24;93166.63;2062938;69;20053;-77
2023/02/19 10:00:49;;;;;;;;;;;;;;;20.77;23.85;93164.31;2059462;69;20494;-78
2023/02/19 10:03:29;;;;;;;;;;;;;;;20.78;24.04;93157.19;2061963;69;20172;-78
2023/02/19 10:06:00;;;;;;;;;;;;;;;22.14;23.48;93159.56;2062392;69;20046;-78
2023/02/19 10:08:26;;;;;;;;;;;;;;;22.24;22.36;93160.53;2062854;69;20058;-77
2023/02/19 10:10:53;;;;;;;;;;;;;;;20.48;24.16;93162.69;2061798;69;20053;-77
2023/02/19 10:13:30;;;;;;;;;;;;;;;22.02;23.99;93168.53;2062373;69;20096;-76
2023/02/19 10:15:57;;;;;;;;;;;;;;;22.14;24.67;93183.22;2061934;69;20053;-79
2023/02/19 10:18:24;;;;;;;;;;;;;;;22.43;22.62;93164.56;2062592;69;20107;-76
2023/02/19 10:20:51;;;;;;;;;;;;;;;23.28;22.14;93174.41;2062352;69;20485;-77
2023/02/19 10:23:17;;;;;;;;;;;;;;;24.03;20.96;93171.56;2061932;69;20049;-77
2023/02/19 10:25:48;;;;;;;;;;;;;;;23.62;20.83;93167.88;2062286;69;20056;-76
2023/02/19 10:28:16;;;;;;;;;;;;;;;24.71;20.31;93179.91;2061827;69;20092;-77
2023/02/19 10:30:42;;;;;;;;;;;;;;;22.43;22.95;93196.13;2062453;69;20089;-77
2023/02/19 10:33:12;;;;;;;;;;;;;;;22.41;21.00;93166.66;2062490;69;20129;-76
2023/02/19 10:35:50;;;;;;;;;;;;;;;23.25;21.05;93164.28;2062077;69;20050;-78
2023/02/19 10:38:17;;;;;;;;;;;;;;;22.89;21.33;93149.09;2061713;69;20046;-77
2023/02/19 10:40:44;;;;;;;;;;;;;;;23.94;20.26;93152.69;2062204;69;20425;-78
2023/02/19 10:43:39;;;;;;;;;;;;;;;25.28;19.74;93163.47;2062117;69;20072;-78
2023/02/19 10:46:07;;;;;;;;;;;;;;;25.55;18.75;93155.88;2061313;69;20053;-78
2023/02/19 10:48:36;;;;;;;;;;;;;;;25.79;18.89;93163.38;2062192;69;20057;-78
2023/02/19 10:51:05;;;;;;;;;;;;;;;26.15;18.25;93170.97;2062055;69;20429;-78
2023/02/19 10:53:36;;;;;;;;;;;;;;;25.43;18.36;93167.28;2062036;69;20191;-79
2023/02/19 10:56:30;;;;;;;;;;;;;;;26.60;18.00;93152.66;2061879;69;20057;-79
2023/02/19 10:59:13;;;;;;;;;;;;;;;25.27;19.28;93185.06;2061982;69;20045;-78
2023/02/19 11:01:51;;;;;;;;;;;;;;;27.21;16.59;93172.59;2061740;69;20122;-77
2023/02/19 11:04:17;;;;;;;;;;;;;;;27.21;16.26;93183.44;2061993;69;20053;-77
2023/02/19 11:06:42;;;;;;;;;;;;;;;25.92;17.13;93167.13;2061377;69;20137;-77
2023/02/19 11:09:21;;;;;;;;;;;;;;;23.57;17.99;93169.94;2062026;69;20052;-77
2023/02/19 11:11:49;;;;;;;;;;;;;;;28.30;16.76;93173.75;2061809;69;20156;-78
2023/02/19 11:14:20;;;;;;;;;;;;;;;28.99;15.22;93173.84;2061893;69;20054;-78
2023/02/19 11:16:47;;;;;;;;;;;;;;;28.30;15.79;93151.31;2061811;69;20057;-78
2023/02/19 11:19:23;;;;;;;;;;;;;;;31.27;14.16;93174.19;2061729;69;20565;-78
2023/02/19 11:21:49;;;;;;;;;;;;;;;32.21;13.75;93176.06;2061815;69;20081;-78
2023/02/19 11:24:29;;;;;;;;;;;;;;;29.35;13.42;93173.06;2061813;69;20144;-76
2023/02/19 11:26:56;;;;;;;;;;;;;;;32.00;13.75;93161.78;2061835;69;20119;-77
2023/02/19 11:29:23;;;;;;;;;;;;;;;33.02;13.35;93171.97;2061801;69;20540;-77
2023/02/19 11:31:49;;;;;;;;;;;;;;;34.17;12.31;93167.69;2061665;69;20474;-77
2023/02/19 11:34:20;;;;;;;;;;;;;;;34.86;11.92;93163.22;2061600;69;20131;-78
2023/02/19 11:36:45;;;;;;;;;;;;;;;34.96;11.70;93141.84;2061182;69;20391;-78
2023/02/19 11:39:14;;;;;;;;;;;;;;;35.55;10.93;93136.69;2060013;69;20528;-78
2023/02/19 11:41:58;;;;;;;;;;;;;;;34.20;12.99;93148.66;2058201;69;20141;-78
2023/02/19 11:44:28;;;;;;;;;;;;;;;33.88;11.87;93136.13;2057815;69;20096;-78
2023/02/19 11:47:00;;;;;;;;;;;;;;;32.42;11.62;93153.94;2058456;69;20097;-78
2023/02/19 11:49:25;;;;;;;;;;;;;;;33.50;11.66;93136.91;2058356;69;20053;-78
2023/02/19 11:51:57;;;;;;;;;;;;;;;35.95;11.41;93125.34;2058447;69;20054;-77
2023/02/19 11:54:39;;;;;;;;;;;;;;;30.21;12.76;93146.66;2058417;69;20046;-79
2023/02/19 11:57:27;;;;;;;;;;;;;;;31.93;12.58;93110.91;2058337;69;20049;-79
2023/02/19 12:00:15;;;;;;;;;;;;;;;31.54;12.50;93122.28;2058362;69;20046;-78
2023/02/19 12:02:57;;;;;;;;;;;;;;;31.41;13.11;93118.06;2058286;69;20076;-79
2023/02/19 12:05:28;;;;;;;;;;;;;;;31.39;13.22;93113.00;2058464;69;20050;-79
2023/02/19 12:08:12;;;;;;;;;;;;;;;33.87;10.95;93108.41;2058559;69;20054;-79
2023/02/19 12:10:56;;;;;;;;;;;;;;;33.55;12.38;93123.69;2058335;69;20084;-77
2023/02/19 12:13:31;;;;;;;;;;;;;;;30.31;12.43;93111.00;2058466;69;20062;-77
2023/02/19 12:16:06;;;;;;;;;;;;;;;31.23;12.85;93090.59;2058580;69;20093;-78
2023/02/19 12:18:46;;;;;;;;;;;;;;;31.62;12.54;93090.19;2058278;69;20061;-77
2023/02/19 12:21:15;;;;;;;;;;;;;;;32.18;11.58;93085.09;2058408;69;20046;-77
2023/02/19 12:23:52;;;;;;;;;;;;;;;33.75;11.36;93087.50;2058389;69;20050;-78
2023/02/19 12:26:27;;;;;;;;;;;;;;;30.80;12.29;93099.03;2058368;69;20176;-78
2023/02/19 12:28:52;;;;;;;;;;;;;;;31.99;12.06;93073.00;2057780;69;20050;-78
2023/02/19 12:31:29;;;;;;;;;;;;;;;33.71;11.48;93079.56;2058350;69;20049;-78
2023/02/19 12:33:57;;;;;;;;;;;;;;;32.76;12.47;93074.00;2058198;69;20054;-80
2023/02/19 12:36:37;;;;;;;;;;;;;;;33.40;10.99;93085.25;2058430;69;20057;-78
2023/02/19 12:39:05;;;;;;;;;;;;;;;35.48;10.66;93089.31;2058510;69;20050;-80
2023/02/19 12:41:48;;;;;;;;;;;;;;;32.90;10.83;93073.03;2058344;69;20058;-80
2023/02/19 12:44:21;;;;;;;;;;;;;;;34.94;10.93;93071.66;2058534;69;20081;-79
2023/02/19 12:46:52;;;;;;;;;;;;;;;31.09;12.15;93067.50;2058514;69;20049;-80
2023/02/19 12:49:24;;;;;;;;;;;;;;;33.89;10.53;93061.66;2058383;69;20438;-80
2023/02/19 12:51:59;;;;;;;;;;;;;;;36.71;9.81;93082.78;2058064;69;20054;-79
2023/02/19 12:54:30;;;;;;;;;;;;;;;30.45;12.96;93086.94;2058363;69;20046;-81
2023/02/19 12:57:01;;;;;;;;;;;;;;;33.96;11.21;93085.63;2058979;69;20046;-79
2023/02/19 12:59:42;;;;;;;;;;;;;;;30.43;11.92;93089.88;2059153;69;20050;-79
2023/02/19 13:02:22;;;;;;;;;;;;;;;31.99;12.31;93086.81;2059111;69;20073;-79
2023/02/19 13:04:48;;;;;;;;;;;;;;;32.31;11.25;93080.53;2059018;69;20054;-78
2023/02/19 13:07:23;;;;;;;;;;;;;;;29.08;12.76;93082.53;2058233;69;20398;-78
2023/02/19 13:09:52;;;;;;;;;;;;;;;29.63;11.93;93073.66;2059024;69;20054;-78
2023/02/19 13:12:25;;;;;;;;;;;;;;;31.73;11.69;93076.22;2058842;69;20070;-78
2023/02/19 13:14:55;;;;;;;;;;;;;;;29.04;12.86;93059.34;2058795;69;20510;-77
2023/02/19 13:17:37;;;;;;;;;;;;;;;29.01;12.57;93052.13;2058644;69;20078;-77
2023/02/19 13:20:21;;;;;;;;;;;;;;;33.48;10.93;93067.63;2058786;69;20062;-77
2023/02/19 13:26:08;;;;;;;;;;;;;;;34.00;10.10;93084.84;2058838;69;20050;-77
2023/02/19 13:28:49;;;;;;;;;;;;;;;34.01;10.77;93084.06;2058857;69;20076;-77
2023/02/19 13:31:35;;;;;;;;;;;;;;;34.21;10.46;93082.16;2058693;69;20058;-77
2023/02/19 13:34:04;;;;;;;;;;;;;;;34.22;10.18;93098.91;2058628;69;20080;-78